sensor_id;sensor_type;location;lat;lon;timestamp;pressure;altitude;pressure_sealevel;temperature;humidity
36630;BME280;36256;42.154;23.002;2023-03-04T00:02:13;97237.75;;;8.02;100.00
36630;BME280;36256;42.154;23.002;2023-03-04T00:04:39;97240.31;;;8.09;100.00
36630;BME280;36256;42.154;23.002;2023-03-04T00:07:06;97238.78;;;8.08;100.00
36630;BME280;36256;42.154;23.002;2023-03-04T00:09:33;97237.88;;;8.11;100.00
36630;BME280;36256;42.154;23.002;2023-03-04T00:11:59;97237.88;;;8.11;100.00
36630;BME280;36256;42.154;23.002;2023-03-04T00:14:26;97235.97;;;8.08;100.00
36630;BME280;36256;42.154;23.002;2023-03-04T00:16:55;97241.22;;;8.06;100.00
36630;BME280;36256;42.154;23.002;2023-03-04T00:19:22;97240.47;;;7.89;100.00
36630;BME280;36256;42.154;23.002;2023-03-04T00:21:48;97244.47;;;7.88;100.00
36630;BME280;36256;42.154;23.002;2023-03-04T00:24:15;97242.63;;;7.82;100.00
36630;BME280;36256;42.154;23.002;2023-03-04T00:26:41;97239.78;;;7.85;100.00
36630;BME280;36256;42.154;23.002;2023-03-04T00:29:09;97238.00;;;7.91;100.00
36630;BME280;36256;42.154;23.002;2023-03-04T00:31:35;97228.22;;;8.00;100.00
36630;BME280;36256;42.154;23.002;2023-03-04T00:34:02;97228.91;;;8.04;100.00
36630;BME280;36256;42.154;23.002;2023-03-04T00:36:28;97227.25;;;8.06;100.00
36630;BME280;36256;42.154;23.002;2023-03-04T00:38:55;97225.59;;;8.09;100.00
36630;BME280;36256;42.154;23.002;2023-03-04T00:41:22;97228.22;;;8.00;100.00
36630;BME280;36256;42.154;23.002;2023-03-04T00:43:48;97230.31;;;7.96;100.00
36630;BME280;36256;42.154;23.002;2023-03-04T00:46:15;97219.50;;;7.98;100.00
36630;BME280;36256;42.154;23.002;2023-03-04T00:48:41;97216.44;;;7.92;100.00
36630;BME280;36256;42.154;23.002;2023-03-04T00:51:08;97222.63;;;8.00;100.00
36630;BME280;36256;42.154;23.002;2023-03-04T00:53:35;97218.06;;;8.06;100.00
36630;BME280;36256;42.154;23.002;2023-03-04T00:56:01;97222.47;;;8.07;100.00
36630;BME280;36256;42.154;23.002;2023-03-04T00:58:28;97218.41;;;8.08;100.00
36630;BME280;36256;42.154;23.002;2023-03-04T01:00:54;97213.19;;;8.10;100.00
36630;BME280;36256;42.154;23.002;2023-03-04T01:03:21;97214.16;;;8.03;100.00
36630;BME280;36256;42.154;23.002;2023-03-04T01:05:48;97211.44;;;8.00;100.00
36630;BME280;36256;42.154;23.002;2023-03-04T01:08:14;97214.25;;;8.00;100.00
36630;BME280;36256;42.154;23.002;2023-03-04T01:10:41;97209.00;;;8.02;100.00
36630;BME280;36256;42.154;23.002;2023-03-04T01:13:07;97211.81;;;8.02;100.00
36630;BME280;36256;42.154;23.002;2023-03-04T01:15:34;97209.97;;;7.95;100.00
36630;BME280;36256;42.154;23.002;2023-03-04T01:18:00;97214.44;;;7.92;100.00
36630;BME280;36256;42.154;23.002;2023-03-04T01:20:27;97204.84;;;7.93;100.00
36630;BME280;36256;42.154;23.002;2023-03-04T01:22:54;97208.38;;;7.94;100.00
36630;BME280;36256;42.154;23.002;2023-03-04T01:25:20;97198.22;;;7.87;100.00
36630;BME280;36256;42.154;23.002;2023-03-04T01:27:47;97194.19;;;7.88;100.00
36630;BME280;36256;42.154;23.002;2023-03-04T01:30:13;97204.75;;;7.81;100.00
36630;BME280;36256;42.154;23.002;2023-03-04T01:32:40;97206.53;;;7.75;100.00
36630;BME280;36256;42.154;23.002;2023-03-04T01:35:07;97195.16;;;7.82;100.00
36630;BME280;36256;42.154;23.002;2023-03-04T01:37:34;97194.19;;;7.88;100.00
36630;BME280;36256;42.154;23.002;2023-03-04T01:40:01;97200.47;;;7.92;100.00
36630;BME280;36256;42.154;23.002;2023-03-04T01:42:31;97197.13;;;7.98;100.00
36630;BME280;36256;42.154;23.002;2023-03-04T01:44:59;97188.75;;;7.98;100.00
36630;BME280;36256;42.154;23.002;2023-03-04T01:47:30;97194.78;;;7.96;100.00
36630;BME280;36256;42.154;23.002;2023-03-04T01:50:00;97186.31;;;8.00;100.00
36630;BME280;36256;42.154;23.002;2023-03-04T01:52:28;97189.78;;;8.04;100.00
36630;BME280;36256;42.154;23.002;2023-03-04T01:54:55;97183.84;;;8.02;100.00
36630;BME280;36256;42.154;23.002;2023-03-04T01:57:24;97178.63;;;8.04;100.00
36630;BME280;36256;42.154;23.002;2023-03-04T02:00:13;97170.56;;;8.06;100.00
36630;BME280;36256;42.154;23.002;2023-03-04T02:02:40;97177.38;;;8.05;100.00
36630;BME280;36256;42.154;23.002;2023-03-04T02:05:07;97176.16;;;8.06;100.00
36630;BME280;36256;42.154;23.002;2023-03-04T02:07:35;97169.78;;;8.05;100.00
36630;BME280;36256;42.154;23.002;2023-03-04T02:10:03;97161.25;;;7.96;100.00
36630;BME280;36256;42.154;23.002;2023-03-04T02:12:30;97157.34;;;7.93;100.00
36630;BME280;36256;42.154;23.002;2023-03-04T02:14:56;97131.53;;;7.73;100.00
36630;BME280;36256;42.154;23.002;2023-03-04T02:17:24;97151.59;;;7.84;100.00
36630;BME280;36256;42.154;23.002;2023-03-04T02:20:15;97156.84;;;7.82;100.00
36630;BME280;36256;42.154;23.002;2023-03-04T02:22:53;97157.34;;;7.77;100.00
36630;BME280;36256;42.154;23.002;2023-03-04T02:25:26;97133.38;;;7.64;100.00
36630;BME280;36256;42.154;23.002;2023-03-04T02:27:54;97155.44;;;7.74;100.00
36630;BME280;36256;42.154;23.002;2023-03-04T02:30:22;97154.66;;;7.74;100.00
36630;BME280;36256;42.154;23.002;2023-03-04T02:32:51;97148.28;;;7.73;100.00
36630;BME280;36256;42.154;23.002;2023-03-04T02:35:18;97120.84;;;7.56;100.00
36630;BME280;36256;42.154;23.002;2023-03-04T02:37:46;97144.56;;;7.64;100.00
36630;BME280;36256;42.154;23.002;2023-03-04T02:40:22;97151.81;;;7.61;100.00
36630;BME280;36256;42.154;23.002;2023-03-04T02:42:49;97141.41;;;7.62;100.00
36630;BME280;36256;42.154;23.002;2023-03-04T02:45:45;97139.94;;;7.57;100.00
36630;BME280;36256;42.154;23.002;2023-03-04T02:48:14;97140.81;;;7.54;100.00
36630;BME280;36256;42.154;23.002;2023-03-04T02:50:47;97139.75;;;7.48;100.00
36630;BME280;36256;42.154;23.002;2023-03-04T02:53:14;97147.19;;;7.55;100.00
36630;BME280;36256;42.154;23.002;2023-03-04T02:55:41;97140.38;;;7.56;100.00
36630;BME280;36256;42.154;23.002;2023-03-04T02:58:09;97126.25;;;7.47;100.00
36630;BME280;36256;42.154;23.002;2023-03-04T03:00:36;97138.81;;;7.55;100.00
36630;BME280;36256;42.154;23.002;2023-03-04T03:03:03;97111.50;;;7.46;100.00
36630;BME280;36256;42.154;23.002;2023-03-04T03:05:32;97130.53;;;7.51;100.00
36630;BME280;36256;42.154;23.002;2023-03-04T03:07:59;97146.47;;;7.51;100.00
36630;BME280;36256;42.154;23.002;2023-03-04T03:10:25;97119.69;;;7.37;100.00
36630;BME280;36256;42.154;23.002;2023-03-04T03:12:52;97140.91;;;7.51;100.00
36630;BME280;36256;42.154;23.002;2023-03-04T03:15:19;97135.41;;;7.47;100.00
36630;BME280;36256;42.154;23.002;2023-03-04T03:17:46;97126.63;;;7.33;100.00
36630;BME280;36256;42.154;23.002;2023-03-04T03:20:14;97143.88;;;7.28;100.00
36630;BME280;36256;42.154;23.002;2023-03-04T03:22:41;97138.03;;;7.22;100.00
36630;BME280;36256;42.154;23.002;2023-03-04T03:25:10;97145.09;;;7.10;100.00
36630;BME280;36256;42.154;23.002;2023-03-04T03:27:37;97156.50;;;7.00;100.00
36630;BME280;36256;42.154;23.002;2023-03-04T03:30:04;97143.78;;;6.99;100.00
36630;BME280;36256;42.154;23.002;2023-03-04T03:32:32;97150.38;;;6.89;100.00
36630;BME280;36256;42.154;23.002;2023-03-04T03:34:59;97142.28;;;6.94;100.00
36630;BME280;36256;42.154;23.002;2023-03-04T03:37:25;97138.28;;;6.95;100.00
36630;BME280;36256;42.154;23.002;2023-03-04T03:39:52;97144.13;;;7.01;100.00
36630;BME280;36256;42.154;23.002;2023-03-04T03:42:19;97137.41;;;6.98;100.00
36630;BME280;36256;42.154;23.002;2023-03-04T03:44:45;97147.06;;;6.94;100.00
36630;BME280;36256;42.154;23.002;2023-03-04T03:47:12;97145.50;;;6.93;100.00
36630;BME280;36256;42.154;23.002;2023-03-04T03:49:38;97131.50;;;6.61;100.00
36630;BME280;36256;42.154;23.002;2023-03-04T03:52:05;97129.44;;;6.65;100.00
36630;BME280;36256;42.154;23.002;2023-03-04T03:54:33;97128.31;;;6.78;100.00
36630;BME280;36256;42.154;23.002;2023-03-04T03:57:00;97136.59;;;6.82;100.00
36630;BME280;36256;42.154;23.002;2023-03-04T03:59:26;97137.34;;;6.66;100.00
36630;BME280;36256;42.154;23.002;2023-03-04T04:01:53;97134.28;;;6.61;100.00
36630;BME280;36256;42.154;23.002;2023-03-04T04:04:20;97133.97;;;6.75;100.00
36630;BME280;36256;42.154;23.002;2023-03-04T04:06:46;97133.38;;;6.83;100.00
36630;BME280;36256;42.154;23.002;2023-03-04T04:09:13;97140.81;;;6.90;100.00
36630;BME280;36256;42.154;23.002;2023-03-04T04:11:40;97148.28;;;6.93;100.00
36630;BME280;36256;42.154;23.002;2023-03-04T04:14:09;97150.22;;;6.96;100.00
36630;BME280;36256;42.154;23.002;2023-03-04T04:16:36;97141.50;;;6.78;100.00
36630;BME280;36256;42.154;23.002;2023-03-04T04:19:03;97148.13;;;6.84;100.00
36630;BME280;36256;42.154;23.002;2023-03-04T04:21:30;97143.25;;;6.88;100.00
36630;BME280;36256;42.154;23.002;2023-03-04T04:23:56;97145.50;;;6.93;100.00
36630;BME280;36256;42.154;23.002;2023-03-04T04:26:23;97141.50;;;6.94;100.00
36630;BME280;36256;42.154;23.002;2023-03-04T04:28:49;97144.53;;;6.99;100.00
36630;BME280;36256;42.154;23.002;2023-03-04T04:31:16;97150.72;;;6.91;100.00
36630;BME280;36256;42.154;23.002;2023-03-04T04:33:43;97147.78;;;6.98;100.00
36630;BME280;36256;42.154;23.002;2023-03-04T04:36:12;97149.19;;;7.06;100.00
36630;BME280;36256;42.154;23.002;2023-03-04T04:38:39;97159.13;;;7.07;100.00
36630;BME280;36256;42.154;23.002;2023-03-04T04:41:21;97147.97;;;7.07;100.00
36630;BME280;36256;42.154;23.002;2023-03-04T04:43:48;97149.63;;;7.04;100.00
36630;BME280;36256;42.154;23.002;2023-03-04T04:46:15;97143.69;;;7.02;100.00
36630;BME280;36256;42.154;23.002;2023-03-04T04:48:42;97150.06;;;7.03;100.00
36630;BME280;36256;42.154;23.002;2023-03-04T04:51:10;97157.19;;;7.04;100.00
36630;BME280;36256;42.154;23.002;2023-03-04T04:53:37;97154.06;;;7.02;100.00
36630;BME280;36256;42.154;23.002;2023-03-04T04:56:14;97156.31;;;6.91;100.00
36630;BME280;36256;42.154;23.002;2023-03-04T04:58:41;97155.94;;;6.53;100.00
36630;BME280;36256;42.154;23.002;2023-03-04T05:01:08;97165.59;;;6.49;100.00
36630;BME280;36256;42.154;23.002;2023-03-04T05:03:36;97166.47;;;6.46;100.00
36630;BME280;36256;42.154;23.002;2023-03-04T05:06:05;97159.41;;;6.41;100.00
36630;BME280;36256;42.154;23.002;2023-03-04T05:08:32;97162.28;;;6.38;100.00
36630;BME280;36256;42.154;23.002;2023-03-04T05:10:59;97166.84;;;6.28;100.00
36630;BME280;36256;42.154;23.002;2023-03-04T05:13:26;97166.84;;;6.28;100.00
36630;BME280;36256;42.154;23.002;2023-03-04T05:15:54;97166.84;;;6.28;100.00
36630;BME280;36256;42.154;23.002;2023-03-04T05:18:23;97170.91;;;6.23;100.00
36630;BME280;36256;42.154;23.002;2023-03-04T05:20:54;97172.84;;;6.26;100.00
36630;BME280;36256;42.154;23.002;2023-03-04T05:23:22;97169.41;;;6.39;100.00
36630;BME280;36256;42.154;23.002;2023-03-04T05:25:49;97171.25;;;6.45;100.00
36630;BME280;36256;42.154;23.002;2023-03-04T05:28:15;97174.41;;;6.47;100.00
36630;BME280;36256;42.154;23.002;2023-03-04T05:30:43;97167.97;;;6.50;100.00
36630;BME280;36256;42.154;23.002;2023-03-04T05:33:12;97179.03;;;6.54;100.00
36630;BME280;36256;42.154;23.002;2023-03-04T05:35:40;97181.97;;;6.47;100.00
36630;BME280;36256;42.154;23.002;2023-03-04T05:38:09;97182.50;;;6.42;100.00
36630;BME280;36256;42.154;23.002;2023-03-04T05:40:36;97189.50;;;6.50;100.00
36630;BME280;36256;42.154;23.002;2023-03-04T05:43:03;97190.19;;;6.54;100.00
36630;BME280;36256;42.154;23.002;2023-03-04T05:45:30;97202.53;;;6.53;100.00
36630;BME280;36256;42.154;23.002;2023-03-04T05:47:57;97182.41;;;6.65;100.00
36630;BME280;36256;42.154;23.002;2023-03-04T05:50:24;97192.88;;;6.77;100.00
36630;BME280;36256;42.154;23.002;2023-03-04T05:52:51;97194.28;;;6.85;100.00
36630;BME280;36256;42.154;23.002;2023-03-04T05:55:18;97196.59;;;6.90;100.00
36630;BME280;36256;42.154;23.002;2023-03-04T05:57:45;97186.22;;;6.90;100.00
36630;BME280;36256;42.154;23.002;2023-03-04T06:00:13;97194.84;;;6.96;100.00
36630;BME280;36256;42.154;23.002;2023-03-04T06:02:42;97186.91;;;6.94;100.00
36630;BME280;36256;42.154;23.002;2023-03-04T06:05:10;97200.88;;;6.94;100.00
36630;BME280;36256;42.154;23.002;2023-03-04T06:07:37;97185.44;;;6.90;100.00
36630;BME280;36256;42.154;23.002;2023-03-04T06:10:05;97203.81;;;6.87;100.00
36630;BME280;36256;42.154;23.002;2023-03-04T06:12:32;97199.44;;;6.86;100.00
36630;BME280;36256;42.154;23.002;2023-03-04T06:14:58;97201.22;;;6.96;100.00
36630;BME280;36256;42.154;23.002;2023-03-04T06:17:25;97196.59;;;6.90;100.00
36630;BME280;36256;42.154;23.002;2023-03-04T06:19:51;97205.81;;;6.87;100.00
36630;BME280;36256;42.154;23.002;2023-03-04T06:22:18;97215.91;;;6.81;100.00
36630;BME280;36256;42.154;23.002;2023-03-04T06:24:45;97207.75;;;6.90;100.00
36630;BME280;36256;42.154;23.002;2023-03-04T06:27:11;97204.63;;;7.04;100.00
36630;BME280;36256;42.154;23.002;2023-03-04T06:29:38;97214.03;;;6.94;100.00
36630;BME280;36256;42.154;23.002;2023-03-04T06:32:05;97213.00;;;7.04;100.00
36630;BME280;36256;42.154;23.002;2023-03-04T06:34:32;97206.28;;;7.01;100.00
36630;BME280;36256;42.154;23.002;2023-03-04T06:36:59;97214.41;;;7.12;100.00
36630;BME280;36256;42.154;23.002;2023-03-04T06:39:25;97216.84;;;7.10;100.00
36630;BME280;36256;42.154;23.002;2023-03-04T06:41:52;97204.28;;;7.02;100.00
36630;BME280;36256;42.154;23.002;2023-03-04T06:44:19;97216.53;;;7.24;100.00
36630;BME280;36256;42.154;23.002;2023-03-04T06:46:45;97211.38;;;7.23;100.00
36630;BME280;36256;42.154;23.002;2023-03-04T06:49:12;97218.97;;;7.22;100.00
36630;BME280;36256;42.154;23.002;2023-03-04T06:51:38;97211.72;;;7.25;100.00
36630;BME280;36256;42.154;23.002;2023-03-04T06:54:05;97213.66;;;7.28;100.00
36630;BME280;36256;42.154;23.002;2023-03-04T06:56:32;97215.66;;;7.27;100.00
36630;BME280;36256;42.154;23.002;2023-03-04T06:58:58;97223.22;;;7.27;100.00
36630;BME280;36256;42.154;23.002;2023-03-04T07:01:27;97217.22;;;7.28;100.00
36630;BME280;36256;42.154;23.002;2023-03-04T07:03:54;97224.38;;;7.29;100.00
36630;BME280;36256;42.154;23.002;2023-03-04T07:06:24;97221.16;;;7.31;100.00
36630;BME280;36256;42.154;23.002;2023-03-04T07:08:51;97216.19;;;7.38;100.00
36630;BME280;36256;42.154;23.002;2023-03-04T07:11:19;97216.88;;;7.42;100.00
36630;BME280;36256;42.154;23.002;2023-03-04T07:13:47;97212.34;;;7.48;100.00
36630;BME280;36256;42.154;23.002;2023-03-04T07:16:16;97219.16;;;7.47;100.00
36630;BME280;36256;42.154;23.002;2023-03-04T07:18:44;97217.34;;;7.41;100.00
36630;BME280;36256;42.154;23.002;2023-03-04T07:21:12;97224.66;;;7.35;100.00
36630;BME280;36256;42.154;23.002;2023-03-04T07:23:39;97219.84;;;7.35;100.00
36630;BME280;36256;42.154;23.002;2023-03-04T07:26:06;97218.97;;;7.22;100.00
36630;BME280;36256;42.154;23.002;2023-03-04T07:28:34;97216.44;;;7.28;100.00
36630;BME280;36256;42.154;23.002;2023-03-04T07:31:15;97217.94;;;7.32;100.00
36630;BME280;36256;42.154;23.002;2023-03-04T07:33:44;97218.63;;;7.36;100.00
36630;BME280;36256;42.154;23.002;2023-03-04T07:36:11;97219.22;;;7.44;100.00
36630;BME280;36256;42.154;23.002;2023-03-04T07:38:46;97212.53;;;7.41;100.00
36630;BME280;36256;42.154;23.002;2023-03-04T07:41:14;97209.75;;;7.41;100.00
36630;BME280;36256;42.154;23.002;2023-03-04T07:43:41;97213.50;;;7.51;100.00
36630;BME280;36256;42.154;23.002;2023-03-04T07:46:08;97213.59;;;7.47;100.00
36630;BME280;36256;42.154;23.002;2023-03-04T07:48:36;97219.88;;;7.51;100.00
36630;BME280;36256;42.154;23.002;2023-03-04T07:51:17;97215.59;;;7.47;100.00
36630;BME280;36256;42.154;23.002;2023-03-04T07:53:46;97213.94;;;7.65;100.00
36630;BME280;36256;42.154;23.002;2023-03-04T07:56:15;97216.19;;;7.70;100.00
36630;BME280;36256;42.154;23.002;2023-03-04T07:58:42;97212.78;;;7.79;100.00
36630;BME280;36256;42.154;23.002;2023-03-04T08:01:15;97221.41;;;7.84;100.00
36630;BME280;36256;42.154;23.002;2023-03-04T08:03:42;97223.06;;;7.82;100.00
36630;BME280;36256;42.154;23.002;2023-03-04T08:06:12;97219.94;;;7.80;100.00
36630;BME280;36256;42.154;23.002;2023-03-04T08:08:39;97205.53;;;7.81;100.00
36630;BME280;36256;42.154;23.002;2023-03-04T08:11:09;97222.63;;;8.00;100.00
36630;BME280;36256;42.154;23.002;2023-03-04T08:13:36;97209.53;;;7.97;100.00
36630;BME280;36256;42.154;23.002;2023-03-04T08:16:03;97218.69;;;7.97;100.00
36630;BME280;36256;42.154;23.002;2023-03-04T08:18:30;97218.59;;;8.01;100.00
36630;BME280;36256;42.154;23.002;2023-03-04T08:20:57;97219.66;;;8.07;100.00
36630;BME280;36256;42.154;23.002;2023-03-04T08:23:24;97216.75;;;8.10;100.00
36630;BME280;36256;42.154;23.002;2023-03-04T08:25:50;97220.88;;;8.06;100.00
36630;BME280;36256;42.154;23.002;2023-03-04T08:28:17;97222.97;;;8.02;100.00
36630;BME280;36256;42.154;23.002;2023-03-04T08:30:44;97222.47;;;8.07;100.00
36630;BME280;36256;42.154;23.002;2023-03-04T08:33:10;97217.44;;;8.14;100.00
36630;BME280;36256;42.154;23.002;2023-03-04T08:35:39;97217.16;;;8.25;100.00
36630;BME280;36256;42.154;23.002;2023-03-04T08:38:06;97220.16;;;8.34;100.00
36630;BME280;36256;42.154;23.002;2023-03-04T08:40:32;97212.19;;;8.32;100.00
36630;BME280;36256;42.154;23.002;2023-03-04T08:42:59;97219.81;;;8.32;100.00
36630;BME280;36256;42.154;23.002;2023-03-04T08:45:26;97219.94;;;8.41;100.00
36630;BME280;36256;42.154;23.002;2023-03-04T08:47:52;97213.66;;;8.37;100.00
36630;BME280;36256;42.154;23.002;2023-03-04T08:50:19;97212.97;;;8.33;100.00
36630;BME280;36256;42.154;23.002;2023-03-04T08:52:47;97214.25;;;8.44;100.00
36630;BME280;36256;42.154;23.002;2023-03-04T08:55:14;97211.59;;;8.53;100.00
36630;BME280;36256;42.154;23.002;2023-03-04T08:57:41;97203.94;;;8.41;100.00
36630;BME280;36256;42.154;23.002;2023-03-04T09:00:09;97215.78;;;8.33;100.00
36630;BME280;36256;42.154;23.002;2023-03-04T09:02:35;97214.22;;;8.32;100.00
36630;BME280;36256;42.154;23.002;2023-03-04T09:05:02;97212.69;;;8.43;100.00
36630;BME280;36256;42.154;23.002;2023-03-04T09:07:29;97211.16;;;8.55;100.00
36630;BME280;36256;42.154;23.002;2023-03-04T09:09:56;97210.25;;;8.58;100.00
36630;BME280;36256;42.154;23.002;2023-03-04T09:12:22;97210.06;;;8.65;100.00
36630;BME280;36256;42.154;23.002;2023-03-04T09:14:49;97214.41;;;8.66;100.00
36630;BME280;36256;42.154;23.002;2023-03-04T09:17:34;97215.66;;;8.65;100.00
36630;BME280;36256;42.154;23.002;2023-03-04T09:20:00;97209.53;;;8.70;100.00
36630;BME280;36256;42.154;23.002;2023-03-04T09:22:29;97207.84;;;8.73;100.00
36630;BME280;36256;42.154;23.002;2023-03-04T09:24:56;97206.75;;;8.70;100.00
36630;BME280;36256;42.154;23.002;2023-03-04T09:27:23;97211.56;;;8.82;100.00
36630;BME280;36256;42.154;23.002;2023-03-04T09:29:49;97203.31;;;8.91;100.00
36630;BME280;36256;42.154;23.002;2023-03-04T09:32:16;97201.06;;;8.86;100.00
36630;BME280;36256;42.154;23.002;2023-03-04T09:34:43;97187.59;;;8.81;100.00
36630;BME280;36256;42.154;23.002;2023-03-04T09:37:10;97214.41;;;9.07;100.00
36630;BME280;36256;42.154;23.002;2023-03-04T09:39:36;97211.28;;;9.18;100.00
36630;BME280;36256;42.154;23.002;2023-03-04T09:42:05;97208.25;;;9.12;100.00
36630;BME280;36256;42.154;23.002;2023-03-04T09:44:41;97197.50;;;9.11;100.00
36630;BME280;36256;42.154;23.002;2023-03-04T09:47:16;97193.03;;;9.13;100.00
36630;BME280;36256;42.154;23.002;2023-03-04T09:49:55;97195.28;;;9.18;100.00
36630;BME280;36256;42.154;23.002;2023-03-04T09:55:27;97192.22;;;9.13;100.00
36630;BME280;36256;42.154;23.002;2023-03-04T10:00:38;97196.38;;;9.08;100.00
36630;BME280;36256;42.154;23.002;2023-03-04T10:03:26;97193.91;;;9.10;100.00
36630;BME280;36256;42.154;23.002;2023-03-04T10:05:59;97189.69;;;9.18;100.00
36630;BME280;36256;42.154;23.002;2023-03-04T10:11:10;97176.00;;;9.33;100.00
36630;BME280;36256;42.154;23.002;2023-03-04T10:14:32;97181.50;;;9.36;100.00
36630;BME280;36256;42.154;23.002;2023-03-04T10:16:40;97183.97;;;9.34;100.00
36630;BME280;36256;42.154;23.002;2023-03-04T10:21:44;97177.53;;;9.59;100.00
36630;BME280;36256;42.154;23.002;2023-03-04T10:24:14;97176.28;;;9.73;100.00
36630;BME280;36256;42.154;23.002;2023-03-04T10:26:45;97168.91;;;9.66;100.00
36630;BME280;36256;42.154;23.002;2023-03-04T10:29:16;97173.72;;;9.66;100.00
36630;BME280;36256;42.154;23.002;2023-03-04T10:31:44;97158.81;;;9.69;100.00
36630;BME280;36256;42.154;23.002;2023-03-04T10:34:13;97157.25;;;9.68;100.00
36630;BME280;36256;42.154;23.002;2023-03-04T10:39:30;97143.22;;;9.68;100.00
36630;BME280;36256;42.154;23.002;2023-03-04T10:42:02;97144.69;;;9.72;100.00
36630;BME280;36256;42.154;23.002;2023-03-04T10:44:30;97139.63;;;9.80;100.00
36630;BME280;36256;42.154;23.002;2023-03-04T10:46:57;97140.84;;;9.79;100.00
36630;BME280;36256;42.154;23.002;2023-03-04T10:49:26;97136.91;;;9.89;100.00
36630;BME280;36256;42.154;23.002;2023-03-04T10:52:01;97129.22;;;10.02;100.00
36630;BME280;36256;42.154;23.002;2023-03-04T10:54:40;97129.69;;;10.13;100.00
36630;BME280;36256;42.154;23.002;2023-03-04T10:57:19;97128.31;;;10.17;100.00
36630;BME280;36256;42.154;23.002;2023-03-04T10:59:58;97116.88;;;10.12;100.00
36630;BME280;36256;42.154;23.002;2023-03-04T11:02:32;97129.81;;;10.31;100.00
36630;BME280;36256;42.154;23.002;2023-03-04T11:07:57;97108.72;;;10.26;100.00
36630;BME280;36256;42.154;23.002;2023-03-04T11:13:07;97093.78;;;10.08;100.00
36630;BME280;36256;42.154;23.002;2023-03-04T11:16:00;97091.56;;;10.03;100.00
36630;BME280;36256;42.154;23.002;2023-03-04T11:18:37;97090.53;;;10.09;100.00
36630;BME280;36256;42.154;23.002;2023-03-04T11:21:06;97097.56;;;10.14;100.00
36630;BME280;36256;42.154;23.002;2023-03-04T11:23:39;97090.91;;;9.99;100.00
36630;BME280;36256;42.154;23.002;2023-03-04T11:26:13;97082.50;;;9.99;99.83
36630;BME280;36256;42.154;23.002;2023-03-04T11:28:46;97083.69;;;10.10;100.00
36630;BME280;36256;42.154;23.002;2023-03-04T11:31:19;97066.75;;;10.14;96.45
36630;BME280;36256;42.154;23.002;2023-03-04T11:33:57;97073.13;;;10.14;97.81
36630;BME280;36256;42.154;23.002;2023-03-04T11:39:45;97053.66;;;10.11;94.01
36630;BME280;36256;42.154;23.002;2023-03-04T11:42:20;97063.81;;;10.17;95.75
36630;BME280;36256;42.154;23.002;2023-03-04T11:44:50;97056.19;;;10.18;95.14
36630;BME280;36256;42.154;23.002;2023-03-04T11:47:38;97061.19;;;10.23;97.04
36630;BME280;36256;42.154;23.002;2023-03-04T11:52:44;97059.25;;;10.11;98.98
36630;BME280;36256;42.154;23.002;2023-03-04T12:06:33;97047.25;;;10.32;97.61
36630;BME280;36256;42.154;23.002;2023-03-04T12:21:07;97042.94;;;10.18;96.63
36630;BME280;36256;42.154;23.002;2023-03-04T12:26:42;97034.81;;;10.11;97.66
36630;BME280;36256;42.154;23.002;2023-03-04T12:29:55;97030.03;;;10.21;92.51
36630;BME280;36256;42.154;23.002;2023-03-04T12:48:36;97002.25;;;11.33;88.74
36630;BME280;36256;42.154;23.002;2023-03-04T12:51:20;96997.72;;;11.27;86.21
36630;BME280;36256;42.154;23.002;2023-03-04T12:56:44;96974.53;;;10.86;85.69
36630;BME280;36256;42.154;23.002;2023-03-04T12:59:19;96972.38;;;10.99;86.58
36630;BME280;36256;42.154;23.002;2023-03-04T13:02:17;96983.47;;;11.12;86.72
36630;BME280;36256;42.154;23.002;2023-03-04T13:05:06;96983.81;;;11.14;83.74
36630;BME280;36256;42.154;23.002;2023-03-04T13:12:51;96980.50;;;10.97;85.81
36630;BME280;36256;42.154;23.002;2023-03-04T13:28:21;96976.66;;;10.73;90.05
36630;BME280;36256;42.154;23.002;2023-03-04T13:36:27;96970.84;;;10.59;91.46
36630;BME280;36256;42.154;23.002;2023-03-04T13:39:00;96950.72;;;10.51;91.28
36630;BME280;36256;42.154;23.002;2023-03-04T13:44:01;96952.53;;;10.76;91.11
36630;BME280;36256;42.154;23.002;2023-03-04T13:46:29;96951.09;;;10.71;90.46
36630;BME280;36256;42.154;23.002;2023-03-04T13:49:07;96944.25;;;10.81;91.51
36630;BME280;36256;42.154;23.002;2023-03-04T13:51:44;96923.03;;;10.71;89.76
36630;BME280;36256;42.154;23.002;2023-03-04T13:54:28;96939.28;;;10.76;90.79
36630;BME280;36256;42.154;23.002;2023-03-04T13:59:38;96925.75;;;11.02;91.28
36630;BME280;36256;42.154;23.002;2023-03-04T14:02:11;96929.19;;;11.15;90.01
36630;BME280;36256;42.154;23.002;2023-03-04T14:07:27;96914.50;;;10.93;88.24
36630;BME280;36256;42.154;23.002;2023-03-04T14:12:35;96920.28;;;10.98;88.00
36630;BME280;36256;42.154;23.002;2023-03-04T14:17:34;96908.63;;;11.27;88.79
36630;BME280;36256;42.154;23.002;2023-03-04T14:20:03;96898.94;;;11.28;87.06
36630;BME280;36256;42.154;23.002;2023-03-04T14:22:40;96891.78;;;11.27;85.29
36630;BME280;36256;42.154;23.002;2023-03-04T14:25:28;96912.22;;;11.28;88.44
36630;BME280;36256;42.154;23.002;2023-03-04T14:28:10;96905.81;;;11.27;88.37
36630;BME280;36256;42.154;23.002;2023-03-04T14:30:37;96899.56;;;11.14;87.32
36630;BME280;36256;42.154;23.002;2023-03-04T14:33:15;96886.59;;;11.26;85.19
36630;BME280;36256;42.154;23.002;2023-03-04T14:35:48;96888.94;;;11.36;87.72
36630;BME280;36256;42.154;23.002;2023-03-04T14:38:24;96892.06;;;11.56;86.07
36630;BME280;36256;42.154;23.002;2023-03-04T14:40:59;96895.66;;;11.48;87.78
36630;BME280;36256;42.154;23.002;2023-03-04T14:43:29;96893.75;;;11.54;87.53
36630;BME280;36256;42.154;23.002;2023-03-04T14:45:59;96885.34;;;11.45;85.73
36630;BME280;36256;42.154;23.002;2023-03-04T14:48:30;96893.31;;;11.46;87.58
36630;BME280;36256;42.154;23.002;2023-03-04T14:50:59;96888.78;;;11.40;84.99